sensor_id;sensor_type;location;lat;lon;timestamp;P1;durP1;ratioP1;P2;durP2;ratioP2
66270;SDS011;53063;39.614;8.814;2022-08-18T00:02:22;17.42;;;4.78;;
66270;SDS011;53063;39.614;8.814;2022-08-18T00:04:50;17.83;;;4.25;;
66270;SDS011;53063;39.614;8.814;2022-08-18T00:07:19;23.00;;;4.47;;
66270;SDS011;53063;39.614;8.814;2022-08-18T00:09:50;15.18;;;4.10;;
66270;SDS011;53063;39.614;8.814;2022-08-18T00:12:18;20.33;;;4.57;;
66270;SDS011;53063;39.614;8.814;2022-08-18T00:14:49;18.13;;;4.15;;
66270;SDS011;53063;39.614;8.814;2022-08-18T00:17:17;18.80;;;4.20;;
66270;SDS011;53063;39.614;8.814;2022-08-18T00:19:43;25.30;;;4.50;;
66270;SDS011;53063;39.614;8.814;2022-08-18T00:22:10;21.40;;;4.30;;
66270;SDS011;53063;39.614;8.814;2022-08-18T00:24:39;27.15;;;5.10;;
66270;SDS011;53063;39.614;8.814;2022-08-18T00:27:05;17.92;;;4.20;;
66270;SDS011;53063;39.614;8.814;2022-08-18T00:29:31;19.63;;;3.88;;
66270;SDS011;53063;39.614;8.814;2022-08-18T00:31:57;21.20;;;5.05;;
66270;SDS011;53063;39.614;8.814;2022-08-18T00:34:23;18.63;;;4.80;;
66270;SDS011;53063;39.614;8.814;2022-08-18T00:36:49;16.48;;;4.57;;
66270;SDS011;53063;39.614;8.814;2022-08-18T00:39:15;15.32;;;4.35;;
66270;SDS011;53063;39.614;8.814;2022-08-18T00:41:41;18.20;;;5.40;;
66270;SDS011;53063;39.614;8.814;2022-08-18T00:44:07;21.92;;;5.28;;
66270;SDS011;53063;39.614;8.814;2022-08-18T00:46:34;16.17;;;4.90;;
66270;SDS011;53063;39.614;8.814;2022-08-18T00:49:02;20.98;;;5.43;;
66270;SDS011;53063;39.614;8.814;2022-08-18T00:51:34;24.90;;;7.95;;
66270;SDS011;53063;39.614;8.814;2022-08-18T00:54:15;31.92;;;9.02;;
66270;SDS011;53063;39.614;8.814;2022-08-18T00:56:49;31.17;;;9.90;;
66270;SDS011;53063;39.614;8.814;2022-08-18T00:59:24;35.53;;;11.60;;
66270;SDS011;53063;39.614;8.814;2022-08-18T01:01:58;41.60;;;11.13;;
66270;SDS011;53063;39.614;8.814;2022-08-18T01:04:28;29.63;;;11.38;;
66270;SDS011;53063;39.614;8.814;2022-08-18T01:07:06;28.98;;;9.13;;
66270;SDS011;53063;39.614;8.814;2022-08-18T01:09:38;29.10;;;9.73;;
66270;SDS011;53063;39.614;8.814;2022-08-18T01:12:04;29.00;;;10.40;;
66270;SDS011;53063;39.614;8.814;2022-08-18T01:14:30;23.33;;;8.70;;
66270;SDS011;53063;39.614;8.814;2022-08-18T01:16:56;26.05;;;8.35;;
66270;SDS011;53063;39.614;8.814;2022-08-18T01:19:41;29.70;;;7.70;;
66270;SDS011;53063;39.614;8.814;2022-08-18T01:22:31;25.50;;;6.90;;
66270;SDS011;53063;39.614;8.814;2022-08-18T01:25:05;28.35;;;6.53;;
66270;SDS011;53063;39.614;8.814;2022-08-18T01:27:50;18.08;;;5.40;;
66270;SDS011;53063;39.614;8.814;2022-08-18T01:30:16;18.90;;;5.60;;
66270;SDS011;53063;39.614;8.814;2022-08-18T01:32:46;20.38;;;6.43;;
66270;SDS011;53063;39.614;8.814;2022-08-18T01:35:12;22.63;;;6.30;;
66270;SDS011;53063;39.614;8.814;2022-08-18T01:37:41;22.40;;;6.30;;
66270;SDS011;53063;39.614;8.814;2022-08-18T01:40:08;20.70;;;5.97;;
66270;SDS011;53063;39.614;8.814;2022-08-18T01:42:35;21.10;;;5.97;;
66270;SDS011;53063;39.614;8.814;2022-08-18T01:45:02;15.95;;;5.45;;
66270;SDS011;53063;39.614;8.814;2022-08-18T01:47:31;17.90;;;6.63;;
66270;SDS011;53063;39.614;8.814;2022-08-18T01:49:59;20.90;;;5.63;;
66270;SDS011;53063;39.614;8.814;2022-08-18T01:52:25;20.17;;;5.50;;
66270;SDS011;53063;39.614;8.814;2022-08-18T01:54:53;21.15;;;6.05;;
66270;SDS011;53063;39.614;8.814;2022-08-18T01:57:22;20.70;;;6.05;;
66270;SDS011;53063;39.614;8.814;2022-08-18T01:59:48;23.02;;;6.63;;
66270;SDS011;53063;39.614;8.814;2022-08-18T02:02:17;19.63;;;6.55;;
66270;SDS011;53063;39.614;8.814;2022-08-18T02:04:49;22.08;;;6.25;;
66270;SDS011;53063;39.614;8.814;2022-08-18T02:07:19;19.08;;;5.88;;
66270;SDS011;53063;39.614;8.814;2022-08-18T02:09:45;20.60;;;6.30;;
66270;SDS011;53063;39.614;8.814;2022-08-18T02:12:12;22.58;;;6.28;;
66270;SDS011;53063;39.614;8.814;2022-08-18T02:14:38;22.00;;;6.55;;
66270;SDS011;53063;39.614;8.814;2022-08-18T02:17:05;27.20;;;6.78;;
66270;SDS011;53063;39.614;8.814;2022-08-18T02:19:37;26.92;;;6.82;;
66270;SDS011;53063;39.614;8.814;2022-08-18T02:22:06;26.75;;;6.70;;
66270;SDS011;53063;39.614;8.814;2022-08-18T02:24:34;22.10;;;6.95;;
66270;SDS011;53063;39.614;8.814;2022-08-18T02:27:01;24.73;;;6.93;;
66270;SDS011;53063;39.614;8.814;2022-08-18T02:29:27;27.20;;;6.93;;
66270;SDS011;53063;39.614;8.814;2022-08-18T02:31:53;24.65;;;7.90;;
66270;SDS011;53063;39.614;8.814;2022-08-18T02:34:19;24.52;;;7.57;;
66270;SDS011;53063;39.614;8.814;2022-08-18T02:36:45;21.63;;;7.35;;
66270;SDS011;53063;39.614;8.814;2022-08-18T02:39:11;23.05;;;7.75;;
66270;SDS011;53063;39.614;8.814;2022-08-18T02:41:37;29.38;;;8.55;;
66270;SDS011;53063;39.614;8.814;2022-08-18T02:44:05;23.42;;;7.53;;
66270;SDS011;53063;39.614;8.814;2022-08-18T02:46:32;27.63;;;8.13;;
66270;SDS011;53063;39.614;8.814;2022-08-18T02:48:58;21.63;;;7.32;;
66270;SDS011;53063;39.614;8.814;2022-08-18T02:51:24;35.22;;;8.30;;
66270;SDS011;53063;39.614;8.814;2022-08-18T02:53:50;21.55;;;7.05;;
66270;SDS011;53063;39.614;8.814;2022-08-18T02:56:18;22.35;;;7.72;;
66270;SDS011;53063;39.614;8.814;2022-08-18T02:58:57;25.20;;;7.07;;
66270;SDS011;53063;39.614;8.814;2022-08-18T03:01:26;23.40;;;8.05;;
66270;SDS011;53063;39.614;8.814;2022-08-18T03:03:56;27.27;;;8.32;;
66270;SDS011;53063;39.614;8.814;2022-08-18T03:06:23;20.90;;;7.50;;
66270;SDS011;53063;39.614;8.814;2022-08-18T03:08:50;19.55;;;7.53;;
66270;SDS011;53063;39.614;8.814;2022-08-18T03:11:17;23.27;;;7.93;;
66270;SDS011;53063;39.614;8.814;2022-08-18T03:13:45;22.90;;;8.75;;
66270;SDS011;53063;39.614;8.814;2022-08-18T03:16:12;27.75;;;8.57;;
66270;SDS011;53063;39.614;8.814;2022-08-18T03:18:40;22.20;;;8.65;;
66270;SDS011;53063;39.614;8.814;2022-08-18T03:21:07;26.77;;;8.13;;
66270;SDS011;53063;39.614;8.814;2022-08-18T03:23:34;25.02;;;8.00;;
66270;SDS011;53063;39.614;8.814;2022-08-18T03:26:00;27.48;;;9.10;;
66270;SDS011;53063;39.614;8.814;2022-08-18T03:28:27;27.13;;;8.55;;
66270;SDS011;53063;39.614;8.814;2022-08-18T03:30:53;24.05;;;8.13;;
66270;SDS011;53063;39.614;8.814;2022-08-18T03:33:19;26.83;;;8.32;;
66270;SDS011;53063;39.614;8.814;2022-08-18T03:35:46;28.33;;;9.23;;
66270;SDS011;53063;39.614;8.814;2022-08-18T03:38:12;26.48;;;8.73;;
66270;SDS011;53063;39.614;8.814;2022-08-18T03:40:38;32.58;;;8.70;;
66270;SDS011;53063;39.614;8.814;2022-08-18T03:43:04;23.33;;;7.78;;
66270;SDS011;53063;39.614;8.814;2022-08-18T03:45:31;27.92;;;8.68;;
66270;SDS011;53063;39.614;8.814;2022-08-18T03:47:59;31.17;;;7.72;;
66270;SDS011;53063;39.614;8.814;2022-08-18T03:50:26;29.67;;;7.63;;
66270;SDS011;53063;39.614;8.814;2022-08-18T03:52:53;24.58;;;7.35;;
66270;SDS011;53063;39.614;8.814;2022-08-18T03:55:23;25.85;;;7.78;;
66270;SDS011;53063;39.614;8.814;2022-08-18T03:57:52;32.33;;;8.65;;
66270;SDS011;53063;39.614;8.814;2022-08-18T04:00:21;25.83;;;7.95;;
66270;SDS011;53063;39.614;8.814;2022-08-18T04:02:47;23.40;;;7.78;;
66270;SDS011;53063;39.614;8.814;2022-08-18T04:05:13;27.83;;;7.55;;
66270;SDS011;53063;39.614;8.814;2022-08-18T04:07:40;19.27;;;7.78;;
66270;SDS011;53063;39.614;8.814;2022-08-18T04:10:07;30.23;;;7.82;;
66270;SDS011;53063;39.614;8.814;2022-08-18T04:12:34;21.67;;;7.35;;
66270;SDS011;53063;39.614;8.814;2022-08-18T04:15:02;21.23;;;7.00;;
66270;SDS011;53063;39.614;8.814;2022-08-18T04:17:28;24.10;;;7.78;;
66270;SDS011;53063;39.614;8.814;2022-08-18T04:19:55;27.85;;;8.00;;
66270;SDS011;53063;39.614;8.814;2022-08-18T04:22:21;23.35;;;6.97;;
66270;SDS011;53063;39.614;8.814;2022-08-18T04:24:49;21.52;;;7.07;;
66270;SDS011;53063;39.614;8.814;2022-08-18T04:27:15;28.88;;;9.20;;
66270;SDS011;53063;39.614;8.814;2022-08-18T04:29:42;21.92;;;7.13;;
66270;SDS011;53063;39.614;8.814;2022-08-18T04:32:07;24.20;;;6.97;;
66270;SDS011;53063;39.614;8.814;2022-08-18T04:34:34;23.20;;;7.55;;
66270;SDS011;53063;39.614;8.814;2022-08-18T04:37:00;28.67;;;8.82;;
66270;SDS011;53063;39.614;8.814;2022-08-18T04:39:26;24.25;;;8.32;;
66270;SDS011;53063;39.614;8.814;2022-08-18T04:41:52;27.05;;;8.93;;
66270;SDS011;53063;39.614;8.814;2022-08-18T04:44:19;36.15;;;8.13;;
66270;SDS011;53063;39.614;8.814;2022-08-18T04:46:50;25.48;;;8.35;;
66270;SDS011;53063;39.614;8.814;2022-08-18T04:49:18;28.95;;;7.88;;
66270;SDS011;53063;39.614;8.814;2022-08-18T04:51:46;22.80;;;7.50;;
66270;SDS011;53063;39.614;8.814;2022-08-18T04:54:33;30.67;;;7.50;;
66270;SDS011;53063;39.614;8.814;2022-08-18T04:57:07;25.52;;;7.50;;
66270;SDS011;53063;39.614;8.814;2022-08-18T04:59:34;27.17;;;8.02;;
66270;SDS011;53063;39.614;8.814;2022-08-18T05:02:01;30.13;;;7.78;;
66270;SDS011;53063;39.614;8.814;2022-08-18T05:04:31;24.00;;;7.75;;
66270;SDS011;53063;39.614;8.814;2022-08-18T05:06:59;28.00;;;8.15;;
66270;SDS011;53063;39.614;8.814;2022-08-18T05:09:25;29.20;;;7.35;;
66270;SDS011;53063;39.614;8.814;2022-08-18T05:11:51;25.75;;;7.10;;
66270;SDS011;53063;39.614;8.814;2022-08-18T05:14:17;20.83;;;6.95;;
66270;SDS011;53063;39.614;8.814;2022-08-18T05:16:44;24.10;;;6.25;;
66270;SDS011;53063;39.614;8.814;2022-08-18T05:19:10;27.70;;;5.72;;
66270;SDS011;53063;39.614;8.814;2022-08-18T05:21:37;24.25;;;5.50;;
66270;SDS011;53063;39.614;8.814;2022-08-18T05:24:06;23.48;;;4.88;;
66270;SDS011;53063;39.614;8.814;2022-08-18T05:26:35;23.40;;;4.90;;
66270;SDS011;53063;39.614;8.814;2022-08-18T05:29:01;28.42;;;5.57;;
66270;SDS011;53063;39.614;8.814;2022-08-18T05:31:28;20.90;;;4.22;;
66270;SDS011;53063;39.614;8.814;2022-08-18T05:33:55;23.42;;;5.28;;
66270;SDS011;53063;39.614;8.814;2022-08-18T05:44:40;25.77;;;4.90;;
66270;SDS011;53063;39.614;8.814;2022-08-18T05:47:30;26.75;;;4.47;;
66270;SDS011;53063;39.614;8.814;2022-08-18T05:50:02;24.48;;;4.75;;
66270;SDS011;53063;39.614;8.814;2022-08-18T05:58:21;29.58;;;6.30;;
66270;SDS011;53063;39.614;8.814;2022-08-18T06:01:05;23.33;;;5.95;;
66270;SDS011;53063;39.614;8.814;2022-08-18T06:03:41;26.20;;;5.97;;
66270;SDS011;53063;39.614;8.814;2022-08-18T06:06:17;19.27;;;4.82;;
66270;SDS011;53063;39.614;8.814;2022-08-18T06:08:49;22.58;;;5.20;;
66270;SDS011;53063;39.614;8.814;2022-08-18T06:11:34;22.48;;;5.13;;
66270;SDS011;53063;39.614;8.814;2022-08-18T06:14:00;20.52;;;4.97;;
66270;SDS011;53063;39.614;8.814;2022-08-18T06:16:31;17.02;;;4.25;;
66270;SDS011;53063;39.614;8.814;2022-08-18T06:22:22;23.10;;;4.88;;
66270;SDS011;53063;39.614;8.814;2022-08-18T06:25:17;17.38;;;4.22;;
66270;SDS011;53063;39.614;8.814;2022-08-18T06:27:52;25.77;;;5.25;;
66270;SDS011;53063;39.614;8.814;2022-08-18T06:39:15;24.65;;;4.45;;
66270;SDS011;53063;39.614;8.814;2022-08-18T06:41:47;21.45;;;4.80;;
66270;SDS011;53063;39.614;8.814;2022-08-18T06:47:54;23.02;;;4.32;;
66270;SDS011;53063;39.614;8.814;2022-08-18T06:54:55;23.60;;;5.00;;
66270;SDS011;53063;39.614;8.814;2022-08-18T06:57:33;15.68;;;4.10;;
66270;SDS011;53063;39.614;8.814;2022-08-18T07:00:07;19.92;;;4.20;;
66270;SDS011;53063;39.614;8.814;2022-08-18T07:05:29;17.73;;;4.40;;
66270;SDS011;53063;39.614;8.814;2022-08-18T07:10:33;23.35;;;4.50;;
66270;SDS011;53063;39.614;8.814;2022-08-18T07:13:11;15.57;;;3.58;;
66270;SDS011;53063;39.614;8.814;2022-08-18T07:15:51;18.95;;;3.63;;
66270;SDS011;53063;39.614;8.814;2022-08-18T07:18:24;22.95;;;4.30;;
66270;SDS011;53063;39.614;8.814;2022-08-18T07:20:54;15.15;;;3.63;;
66270;SDS011;53063;39.614;8.814;2022-08-18T07:23:26;19.13;;;4.22;;
66270;SDS011;53063;39.614;8.814;2022-08-18T07:33:35;16.88;;;4.18;;
66270;SDS011;53063;39.614;8.814;2022-08-18T07:36:02;21.38;;;3.88;;
66270;SDS011;53063;39.614;8.814;2022-08-18T07:41:54;17.30;;;4.40;;
66270;SDS011;53063;39.614;8.814;2022-08-18T07:44:27;19.75;;;3.60;;
66270;SDS011;53063;39.614;8.814;2022-08-18T07:47:22;18.25;;;4.05;;
66270;SDS011;53063;39.614;8.814;2022-08-18T07:49:53;17.83;;;3.47;;
66270;SDS011;53063;39.614;8.814;2022-08-18T07:52:30;20.27;;;4.15;;
66270;SDS011;53063;39.614;8.814;2022-08-18T08:00:30;23.00;;;4.50;;
66270;SDS011;53063;39.614;8.814;2022-08-18T08:08:39;20.10;;;3.47;;
66270;SDS011;53063;39.614;8.814;2022-08-18T08:27:34;16.65;;;3.95;;
66270;SDS011;53063;39.614;8.814;2022-08-18T08:30:09;15.80;;;3.72;;
66270;SDS011;53063;39.614;8.814;2022-08-18T08:35:24;21.30;;;4.32;;
66270;SDS011;53063;39.614;8.814;2022-08-18T08:38:02;19.95;;;4.10;;
66270;SDS011;53063;39.614;8.814;2022-08-18T08:40:42;16.30;;;3.30;;
66270;SDS011;53063;39.614;8.814;2022-08-18T08:43:16;14.05;;;3.22;;
66270;SDS011;53063;39.614;8.814;2022-08-18T08:45:50;19.85;;;3.38;;
66270;SDS011;53063;39.614;8.814;2022-08-18T08:48:47;20.88;;;3.90;;
66270;SDS011;53063;39.614;8.814;2022-08-18T08:54:34;17.50;;;3.75;;
66270;SDS011;53063;39.614;8.814;2022-08-18T08:56:43;13.57;;;4.00;;
66270;SDS011;53063;39.614;8.814;2022-08-18T08:59:13;18.77;;;4.40;;
66270;SDS011;53063;39.614;8.814;2022-08-18T09:04:33;14.48;;;3.70;;
66270;SDS011;53063;39.614;8.814;2022-08-18T09:24:24;17.38;;;4.32;;
66270;SDS011;53063;39.614;8.814;2022-08-18T09:35:00;16.90;;;3.42;;
66270;SDS011;53063;39.614;8.814;2022-08-18T09:40:55;15.43;;;3.00;;
66270;SDS011;53063;39.614;8.814;2022-08-18T09:52:00;12.75;;;3.65;;
66270;SDS011;53063;39.614;8.814;2022-08-18T09:57:33;10.20;;;3.45;;
66270;SDS011;53063;39.614;8.814;2022-08-18T10:10:43;23.85;;;4.90;;
66270;SDS011;53063;39.614;8.814;2022-08-18T10:13:29;12.18;;;3.22;;
66270;SDS011;53063;39.614;8.814;2022-08-18T10:22:17;15.43;;;3.60;;
66270;SDS011;53063;39.614;8.814;2022-08-18T10:24:56;19.05;;;4.03;;
66270;SDS011;53063;39.614;8.814;2022-08-18T10:30:06;16.52;;;3.58;;
66270;SDS011;53063;39.614;8.814;2022-08-18T10:32:58;12.00;;;4.30;;
66270;SDS011;53063;39.614;8.814;2022-08-18T10:38:01;20.95;;;4.05;;
66270;SDS011;53063;39.614;8.814;2022-08-18T10:40:41;12.93;;;4.35;;
66270;SDS011;53063;39.614;8.814;2022-08-18T10:43:16;13.98;;;3.85;;
66270;SDS011;53063;39.614;8.814;2022-08-18T10:46:13;16.23;;;3.38;;
66270;SDS011;53063;39.614;8.814;2022-08-18T10:48:41;15.77;;;3.80;;
66270;SDS011;53063;39.614;8.814;2022-08-18T10:56:32;9.65;;;3.30;;
66270;SDS011;53063;39.614;8.814;2022-08-18T11:01:59;18.98;;;3.63;;
66270;SDS011;53063;39.614;8.814;2022-08-18T11:04:46;15.70;;;3.78;;
66270;SDS011;53063;39.614;8.814;2022-08-18T11:09:44;18.55;;;3.90;;
66270;SDS011;53063;39.614;8.814;2022-08-18T11:12:15;17.67;;;3.78;;
66270;SDS011;53063;39.614;8.814;2022-08-18T11:15:34;16.95;;;3.47;;
66270;SDS011;53063;39.614;8.814;2022-08-18T11:26:59;15.20;;;3.72;;
66270;SDS011;53063;39.614;8.814;2022-08-18T11:29:41;17.10;;;3.67;;
66270;SDS011;53063;39.614;8.814;2022-08-18T11:45:57;16.83;;;4.15;;
66270;SDS011;53063;39.614;8.814;2022-08-18T11:48:44;9.93;;;3.58;;
66270;SDS011;53063;39.614;8.814;2022-08-18T11:51:18;13.85;;;4.03;;
66270;SDS011;53063;39.614;8.814;2022-08-18T11:53:51;17.33;;;3.78;;
66270;SDS011;53063;39.614;8.814;2022-08-18T11:56:25;14.60;;;4.18;;
66270;SDS011;53063;39.614;8.814;2022-08-18T11:59:01;12.90;;;3.55;;
66270;SDS011;53063;39.614;8.814;2022-08-18T12:01:47;11.63;;;3.83;;
66270;SDS011;53063;39.614;8.814;2022-08-18T12:09:34;17.85;;;3.85;;
66270;SDS011;53063;39.614;8.814;2022-08-18T12:17:25;16.52;;;3.65;;
66270;SDS011;53063;39.614;8.814;2022-08-18T12:19:52;11.15;;;3.78;;
66270;SDS011;53063;39.614;8.814;2022-08-18T12:22:19;13.35;;;3.85;;
66270;SDS011;53063;39.614;8.814;2022-08-18T12:24:50;12.85;;;3.10;;
66270;SDS011;53063;39.614;8.814;2022-08-18T12:27:22;13.20;;;3.17;;
66270;SDS011;53063;39.614;8.814;2022-08-18T12:29:49;13.07;;;3.80;;
66270;SDS011;53063;39.614;8.814;2022-08-18T12:32:17;12.32;;;3.72;;
66270;SDS011;53063;39.614;8.814;2022-08-18T12:34:45;15.27;;;3.83;;
66270;SDS011;53063;39.614;8.814;2022-08-18T12:37:14;13.02;;;3.45;;
66270;SDS011;53063;39.614;8.814;2022-08-18T12:39:42;14.30;;;3.63;;
66270;SDS011;53063;39.614;8.814;2022-08-18T12:42:09;13.13;;;3.90;;
66270;SDS011;53063;39.614;8.814;2022-08-18T12:44:36;12.88;;;3.17;;
66270;SDS011;53063;39.614;8.814;2022-08-18T12:47:04;11.90;;;3.28;;
66270;SDS011;53063;39.614;8.814;2022-08-18T12:49:34;9.98;;;3.55;;
66270;SDS011;53063;39.614;8.814;2022-08-18T12:52:00;11.45;;;2.92;;
66270;SDS011;53063;39.614;8.814;2022-08-18T12:54:27;11.52;;;3.28;;
66270;SDS011;53063;39.614;8.814;2022-08-18T12:56:53;14.48;;;3.50;;
66270;SDS011;53063;39.614;8.814;2022-08-18T12:59:21;15.07;;;2.97;;
66270;SDS011;53063;39.614;8.814;2022-08-18T13:01:48;12.88;;;3.38;;
66270;SDS011;53063;39.614;8.814;2022-08-18T13:04:15;16.92;;;3.40;;
66270;SDS011;53063;39.614;8.814;2022-08-18T13:06:51;9.30;;;2.75;;
66270;SDS011;53063;39.614;8.814;2022-08-18T13:09:19;14.15;;;3.53;;
66270;SDS011;53063;39.614;8.814;2022-08-18T13:11:46;11.98;;;2.70;;
66270;SDS011;53063;39.614;8.814;2022-08-18T13:14:12;12.98;;;3.33;;
66270;SDS011;53063;39.614;8.814;2022-08-18T13:16:40;13.40;;;3.20;;
66270;SDS011;53063;39.614;8.814;2022-08-18T13:19:09;13.77;;;3.22;;
66270;SDS011;53063;39.614;8.814;2022-08-18T13:21:36;13.13;;;3.40;;
66270;SDS011;53063;39.614;8.814;2022-08-18T13:24:02;11.38;;;3.05;;
66270;SDS011;53063;39.614;8.814;2022-08-18T13:26:30;16.27;;;3.05;;
66270;SDS011;53063;39.614;8.814;2022-08-18T13:29:00;16.33;;;3.33;;
66270;SDS011;53063;39.614;8.814;2022-08-18T13:31:27;15.02;;;2.95;;
66270;SDS011;53063;39.614;8.814;2022-08-18T13:33:53;7.80;;;2.85;;
66270;SDS011;53063;39.614;8.814;2022-08-18T13:36:23;10.27;;;2.60;;
66270;SDS011;53063;39.614;8.814;2022-08-18T13:38:51;14.45;;;3.25;;
66270;SDS011;53063;39.614;8.814;2022-08-18T13:41:21;14.57;;;3.45;;
66270;SDS011;53063;39.614;8.814;2022-08-18T13:43:48;10.90;;;3.17;;
66270;SDS011;53063;39.614;8.814;2022-08-18T13:46:15;10.95;;;2.65;;
66270;SDS011;53063;39.614;8.814;2022-08-18T13:48:43;11.35;;;3.22;;
66270;SDS011;53063;39.614;8.814;2022-08-18T13:51:12;11.45;;;2.65;;
66270;SDS011;53063;39.614;8.814;2022-08-18T13:53:47;13.75;;;3.28;;
66270;SDS011;53063;39.614;8.814;2022-08-18T13:56:13;17.15;;;3.33;;
66270;SDS011;53063;39.614;8.814;2022-08-18T13:58:39;18.83;;;3.55;;
66270;SDS011;53063;39.614;8.814;2022-08-18T14:01:06;14.77;;;2.95;;
66270;SDS011;53063;39.614;8.814;2022-08-18T14:03:33;11.10;;;3.85;;
66270;SDS011;53063;39.614;8.814;2022-08-18T14:06:00;14.25;;;3.25;;
66270;SDS011;53063;39.614;8.814;2022-08-18T14:08:28;15.73;;;2.63;;
66270;SDS011;53063;39.614;8.814;2022-08-18T14:10:56;7.05;;;2.28;;
66270;SDS011;53063;39.614;8.814;2022-08-18T14:13:25;10.88;;;2.00;;
66270;SDS011;53063;39.614;8.814;2022-08-18T14:15:52;11.70;;;2.92;;
66270;SDS011;53063;39.614;8.814;2022-08-18T14:18:20;9.57;;;2.25;;
66270;SDS011;53063;39.614;8.814;2022-08-18T14:20:50;11.10;;;2.55;;
66270;SDS011;53063;39.614;8.814;2022-08-18T14:23:35;10.48;;;2.40;;
66270;SDS011;53063;39.614;8.814;2022-08-18T14:26:20;12.23;;;2.47;;
66270;SDS011;53063;39.614;8.814;2022-08-18T14:29:04;9.82;;;1.83;;
66270;SDS011;53063;39.614;8.814;2022-08-18T14:31:30;10.20;;;2.33;;
66270;SDS011;53063;39.614;8.814;2022-08-18T14:33:57;10.95;;;2.35;;
66270;SDS011;53063;39.614;8.814;2022-08-18T14:36:23;19.98;;;3.45;;
66270;SDS011;53063;39.614;8.814;2022-08-18T14:38:49;14.73;;;2.70;;
66270;SDS011;53063;39.614;8.814;2022-08-18T14:41:15;14.35;;;3.13;;
66270;SDS011;53063;39.614;8.814;2022-08-18T14:43:42;13.75;;;2.90;;
66270;SDS011;53063;39.614;8.814;2022-08-18T14:46:09;10.88;;;2.70;;
66270;SDS011;53063;39.614;8.814;2022-08-18T14:48:37;14.38;;;2.97;;
66270;SDS011;53063;39.614;8.814;2022-08-18T14:51:03;14.90;;;3.50;;
66270;SDS011;53063;39.614;8.814;2022-08-18T14:53:30;11.77;;;2.83;;
66270;SDS011;53063;39.614;8.814;2022-08-18T14:55:58;14.05;;;2.60;;
66270;SDS011;53063;39.614;8.814;2022-08-18T14:58:26;10.20;;;2.58;;
66270;SDS011;53063;39.614;8.814;2022-08-18T15:00:56;15.07;;;3.10;;
66270;SDS011;53063;39.614;8.814;2022-08-18T15:03:25;11.45;;;2.20;;
66270;SDS011;53063;39.614;8.814;2022-08-18T15:05:52;9.52;;;2.20;;
66270;SDS011;53063;39.614;8.814;2022-08-18T15:08:19;11.68;;;2.63;;
66270;SDS011;53063;39.614;8.814;2022-08-18T15:10:45;15.10;;;2.90;;
66270;SDS011;53063;39.614;8.814;2022-08-18T15:13:11;10.38;;;2.28;;
66270;SDS011;53063;39.614;8.814;2022-08-18T15:15:38;13.05;;;2.33;;
66270;SDS011;53063;39.614;8.814;2022-08-18T15:18:05;16.80;;;2.97;;
66270;SDS011;53063;39.614;8.814;2022-08-18T15:20:32;12.98;;;2.95;;
66270;SDS011;53063;39.614;8.814;2022-08-18T15:23:18;13.98;;;2.30;;
66270;SDS011;53063;39.614;8.814;2022-08-18T15:26:02;15.10;;;2.10;;
66270;SDS011;53063;39.614;8.814;2022-08-18T15:28:28;17.95;;;2.45;;
66270;SDS011;53063;39.614;8.814;2022-08-18T15:30:54;9.82;;;2.42;;
66270;SDS011;53063;39.614;8.814;2022-08-18T15:33:20;11.18;;;2.40;;
66270;SDS011;53063;39.614;8.814;2022-08-18T15:35:48;11.30;;;2.33;;
66270;SDS011;53063;39.614;8.814;2022-08-18T15:38:19;10.45;;;1.90;;
66270;SDS011;53063;39.614;8.814;2022-08-18T15:43:19;10.02;;;2.38;;
66270;SDS011;53063;39.614;8.814;2022-08-18T15:45:46;16.58;;;2.20;;
66270;SDS011;53063;39.614;8.814;2022-08-18T15:48:13;15.95;;;2.50;;
66270;SDS011;53063;39.614;8.814;2022-08-18T15:50:40;14.35;;;2.75;;
66270;SDS011;53063;39.614;8.814;2022-08-18T15:53:08;13.70;;;2.58;;
66270;SDS011;53063;39.614;8.814;2022-08-18T15:55:36;16.13;;;2.97;;
66270;SDS011;53063;39.614;8.814;2022-08-18T15:58:04;15.93;;;3.10;;
66270;SDS011;53063;39.614;8.814;2022-08-18T16:00:31;10.35;;;2.65;;
66270;SDS011;53063;39.614;8.814;2022-08-18T16:02:59;15.43;;;2.50;;
66270;SDS011;53063;39.614;8.814;2022-08-18T16:05:31;8.95;;;1.88;;
66270;SDS011;53063;39.614;8.814;2022-08-18T16:08:01;14.27;;;2.80;;
66270;SDS011;53063;39.614;8.814;2022-08-18T16:10:29;12.90;;;2.38;;
66270;SDS011;53063;39.614;8.814;2022-08-18T16:12:56;9.73;;;1.67;;
66270;SDS011;53063;39.614;8.814;2022-08-18T16:15:23;9.60;;;2.20;;
66270;SDS011;53063;39.614;8.814;2022-08-18T16:17:50;13.68;;;2.35;;
66270;SDS011;53063;39.614;8.814;2022-08-18T16:20:19;14.00;;;3.13;;
66270;SDS011;53063;39.614;8.814;2022-08-18T16:22:50;13.68;;;2.33;;
66270;SDS011;53063;39.614;8.814;2022-08-18T16:25:17;13.20;;;2.67;;
66270;SDS011;53063;39.614;8.814;2022-08-18T16:27:44;17.08;;;2.90;;
66270;SDS011;53063;39.614;8.814;2022-08-18T16:30:18;14.63;;;2.92;;
66270;SDS011;53063;39.614;8.814;2022-08-18T16:32:48;14.02;;;2.47;;
66270;SDS011;53063;39.614;8.814;2022-08-18T16:35:15;13.20;;;2.58;;
66270;SDS011;53063;39.614;8.814;2022-08-18T16:37:45;17.33;;;2.65;;
66270;SDS011;53063;39.614;8.814;2022-08-18T16:40:14;9.15;;;2.17;;
66270;SDS011;53063;39.614;8.814;2022-08-18T16:42:41;16.90;;;3.08;;
66270;SDS011;53063;39.614;8.814;2022-08-18T16:45:08;15.70;;;2.33;;
66270;SDS011;53063;39.614;8.814;2022-08-18T16:47:35;15.27;;;3.00;;
66270;SDS011;53063;39.614;8.814;2022-08-18T16:50:06;11.23;;;2.33;;
66270;SDS011;53063;39.614;8.814;2022-08-18T16:52:37;43.65;;;4.30;;
66270;SDS011;53063;39.614;8.814;2022-08-18T16:55:04;11.70;;;2.42;;
66270;SDS011;53063;39.614;8.814;2022-08-18T16:57:31;10.80;;;2.17;;
66270;SDS011;53063;39.614;8.814;2022-08-18T17:00:15;24.85;;;4.28;;
66270;SDS011;53063;39.614;8.814;2022-08-18T17:03:04;15.43;;;3.25;;
66270;SDS011;53063;39.614;8.814;2022-08-18T17:05:56;17.35;;;2.20;;
66270;SDS011;53063;39.614;8.814;2022-08-18T17:08:23;9.02;;;1.73;;
66270;SDS011;53063;39.614;8.814;2022-08-18T17:10:49;12.93;;;1.90;;
66270;SDS011;53063;39.614;8.814;2022-08-18T17:13:15;21.63;;;3.10;;
66270;SDS011;53063;39.614;8.814;2022-08-18T17:15:41;12.48;;;1.98;;
66270;SDS011;53063;39.614;8.814;2022-08-18T17:18:13;9.52;;;1.85;;
66270;SDS011;53063;39.614;8.814;2022-08-18T17:20:40;9.95;;;1.35;;
66270;SDS011;53063;39.614;8.814;2022-08-18T17:23:05;8.23;;;1.48;;
66270;SDS011;53063;39.614;8.814;2022-08-18T17:25:31;7.05;;;1.67;;
66270;SDS011;53063;39.614;8.814;2022-08-18T17:27:59;12.00;;;2.67;;
66270;SDS011;53063;39.614;8.814;2022-08-18T17:30:27;10.68;;;2.47;;
66270;SDS011;53063;39.614;8.814;2022-08-18T17:33:02;13.23;;;2.50;;
66270;SDS011;53063;39.614;8.814;2022-08-18T17:35:34;9.30;;;1.90;;
66270;SDS011;53063;39.614;8.814;2022-08-18T17:40:52;7.57;;;1.85;;
66270;SDS011;53063;39.614;8.814;2022-08-18T17:43:21;13.52;;;2.55;;
66270;SDS011;53063;39.614;8.814;2022-08-18T17:45:53;16.70;;;2.28;;
66270;SDS011;53063;39.614;8.814;2022-08-18T17:48:33;11.00;;;1.90;;
66270;SDS011;53063;39.614;8.814;2022-08-18T17:51:22;7.65;;;1.77;;
66270;SDS011;53063;39.614;8.814;2022-08-18T17:54:14;7.95;;;1.90;;
66270;SDS011;53063;39.614;8.814;2022-08-18T17:56:52;10.18;;;2.00;;
66270;SDS011;53063;39.614;8.814;2022-08-18T17:59:56;9.38;;;2.30;;
66270;SDS011;53063;39.614;8.814;2022-08-18T18:02:42;13.18;;;2.30;;
66270;SDS011;53063;39.614;8.814;2022-08-18T18:05:10;12.70;;;2.03;;
66270;SDS011;53063;39.614;8.814;2022-08-18T18:10:09;9.88;;;2.00;;
66270;SDS011;53063;39.614;8.814;2022-08-18T18:12:46;6.72;;;2.03;;
66270;SDS011;53063;39.614;8.814;2022-08-18T18:15:39;5.38;;;2.10;;
66270;SDS011;53063;39.614;8.814;2022-08-18T18:20:55;8.23;;;1.75;;